createdAt,value
2023-01-27T00:00:12.228Z,94962.00
2023-01-27T00:01:11.821Z,94960.00
2023-01-27T00:02:11.703Z,94960.00
2023-01-27T00:03:11.585Z,94964.00
2023-01-27T00:04:11.488Z,94962.00
2023-01-27T00:05:11.396Z,94962.00
2023-01-27T00:06:11.319Z,94962.00
2023-01-27T00:07:11.225Z,94964.00
2023-01-27T00:08:11.100Z,94962.00
2023-01-27T00:09:11.035Z,94962.00
2023-01-27T00:10:11.186Z,94962.00
2023-01-27T00:11:10.814Z,94962.00
2023-01-27T00:12:10.683Z,94964.00
2023-01-27T00:13:10.637Z,94964.00
2023-01-27T00:14:10.554Z,94962.00
2023-01-27T00:15:10.413Z,94960.00
2023-01-27T00:16:10.339Z,94962.00
2023-01-27T00:17:10.223Z,94960.00
2023-01-27T00:18:10.122Z,94960.00
2023-01-27T00:19:10.079Z,94960.00
2023-01-27T00:20:10.084Z,94960.00
2023-01-27T00:21:09.886Z,94960.00
2023-01-27T00:22:09.724Z,94958.00
2023-01-27T00:23:09.691Z,94960.00
2023-01-27T00:24:09.586Z,94962.00
2023-01-27T00:25:09.426Z,94962.00
2023-01-27T00:26:09.328Z,94960.00
2023-01-27T00:27:09.244Z,94964.00
2023-01-27T00:28:09.129Z,94962.00
2023-01-27T00:29:09.041Z,94966.00
2023-01-27T00:30:08.914Z,94964.00
2023-01-27T00:31:08.910Z,94960.00
2023-01-27T00:32:08.763Z,94958.00
2023-01-27T00:33:08.632Z,94962.00
2023-01-27T00:34:08.573Z,94964.00
2023-01-27T00:35:08.479Z,94966.00
2023-01-27T00:36:08.347Z,94962.00
2023-01-27T00:37:08.284Z,94962.00
2023-01-27T00:38:08.159Z,94958.00
2023-01-27T00:39:08.119Z,94958.00
2023-01-27T00:40:07.996Z,94954.00
2023-01-27T00:41:07.893Z,94958.00
2023-01-27T00:42:07.819Z,94958.00
2023-01-27T00:43:07.676Z,94960.00
2023-01-27T00:44:07.625Z,94960.00
2023-01-27T00:45:07.514Z,94964.00
2023-01-27T00:46:07.445Z,94962.00
2023-01-27T00:47:07.327Z,94964.00
2023-01-27T00:48:07.224Z,94964.00
2023-01-27T00:49:07.115Z,94966.00
2023-01-27T00:50:06.997Z,94966.00
2023-01-27T00:51:06.927Z,94968.00
2023-01-27T00:52:06.836Z,94966.00
2023-01-27T00:53:06.712Z,94966.00
2023-01-27T00:54:06.655Z,94968.00
2023-01-27T00:55:06.552Z,94972.00
2023-01-27T00:56:06.429Z,94972.00
2023-01-27T00:57:06.371Z,94970.00
2023-01-27T00:58:06.287Z,94972.00
2023-01-27T00:59:06.158Z,94970.00
2023-01-27T01:00:06.051Z,94968.00
2023-01-27T01:01:05.945Z,94970.00
2023-01-27T01:02:06.011Z,94968.00
2023-01-27T01:03:05.887Z,94968.00
2023-01-27T01:04:05.691Z,94970.00
2023-01-27T01:05:05.578Z,94968.00
2023-01-27T01:06:05.480Z,94970.00
2023-01-27T01:07:05.377Z,94972.00
2023-01-27T01:08:05.284Z,94975.00
2023-01-27T01:09:05.188Z,94973.00
2023-01-27T01:10:05.096Z,94972.00
2023-01-27T01:11:05.002Z,94973.00
2023-01-27T01:12:04.900Z,94970.00
2023-01-27T01:13:04.754Z,94968.00
2023-01-27T01:14:04.709Z,94968.00
2023-01-27T01:15:04.576Z,94968.00
2023-01-27T01:16:04.562Z,94968.00
2023-01-27T01:17:04.417Z,94968.00
2023-01-27T01:18:04.268Z,94968.00
2023-01-27T01:19:04.268Z,94970.00
2023-01-27T01:20:04.106Z,94973.00
2023-01-27T01:21:04.008Z,94970.00
2023-01-27T01:22:05.033Z,94972.00
2023-01-27T01:23:03.809Z,94966.00
2023-01-27T01:24:03.800Z,94972.00
2023-01-27T01:25:03.612Z,94972.00
2023-01-27T01:26:03.504Z,94966.00
2023-01-27T01:27:03.388Z,94972.00
2023-01-27T01:28:03.304Z,94970.00
2023-01-27T01:29:03.273Z,94968.00
2023-01-27T01:30:03.093Z,94972.00
2023-01-27T01:31:03.117Z,94972.00
2023-01-27T01:32:02.907Z,94973.00
2023-01-27T01:33:02.828Z,94973.00
2023-01-27T01:34:02.725Z,94972.00
2023-01-27T01:35:02.615Z,94972.00
2023-01-27T01:36:02.552Z,94972.00
2023-01-27T01:37:02.435Z,94972.00
2023-01-27T01:38:02.383Z,94973.00
2023-01-27T01:39:02.271Z,94973.00
2023-01-27T01:40:02.173Z,94975.00
2023-01-27T01:41:02.058Z,94973.00
2023-01-27T01:42:01.957Z,94973.00
2023-01-27T01:43:01.861Z,94973.00
2023-01-27T01:44:01.788Z,94973.00
2023-01-27T01:45:01.802Z,94972.00
2023-01-27T01:46:01.671Z,94973.00
2023-01-27T01:47:01.584Z,94973.00
2023-01-27T01:48:01.429Z,94973.00
2023-01-27T01:49:01.302Z,94973.00
2023-01-27T01:50:01.210Z,94973.00
2023-01-27T01:51:01.213Z,94973.00
2023-01-27T01:52:01.139Z,94973.00
2023-01-27T01:53:01.144Z,94973.00
2023-01-27T01:54:01.146Z,94972.00
2023-01-27T01:55:01.044Z,94972.00
2023-01-27T01:56:00.993Z,94972.00
2023-01-27T01:57:00.963Z,94972.00
2023-01-27T01:58:00.936Z,94972.00
2023-01-27T01:59:00.919Z,94973.00
2023-01-27T02:00:00.869Z,94973.00
2023-01-27T02:01:00.824Z,94973.00
2023-01-27T02:02:00.810Z,94972.00
2023-01-27T02:03:00.858Z,94968.00
2023-01-27T02:04:00.696Z,94968.00
2023-01-27T02:05:00.707Z,94970.00
2023-01-27T02:06:00.596Z,94972.00
2023-01-27T02:07:00.600Z,94968.00
2023-01-27T02:08:00.537Z,94972.00
2023-01-27T02:09:00.467Z,94972.00
2023-01-27T02:10:00.391Z,94970.00
2023-01-27T02:11:00.331Z,94966.00
2023-01-27T02:12:00.230Z,94966.00
2023-01-27T02:13:00.141Z,94968.00
2023-01-27T02:14:00.064Z,94966.00
2023-01-27T02:14:59.962Z,94966.00
2023-01-27T02:15:59.896Z,94962.00
2023-01-27T02:16:59.773Z,94962.00
2023-01-27T02:17:59.676Z,94962.00
2023-01-27T02:18:59.611Z,94962.00
2023-01-27T02:19:59.531Z,94964.00
2023-01-27T02:20:59.441Z,94964.00
2023-01-27T02:21:59.322Z,94966.00
2023-01-27T02:22:59.279Z,94964.00
2023-01-27T02:23:59.216Z,94966.00
2023-01-27T02:24:59.069Z,94968.00
2023-01-27T02:25:59.018Z,94968.00
2023-01-27T02:26:58.959Z,94968.00
2023-01-27T02:27:58.862Z,94970.00
2023-01-27T02:28:58.777Z,94970.00
2023-01-27T02:29:58.680Z,94970.00
2023-01-27T02:30:58.629Z,94972.00
2023-01-27T02:31:58.480Z,94970.00
2023-01-27T02:32:58.391Z,94970.00
2023-01-27T02:33:58.288Z,94970.00
2023-01-27T02:34:58.219Z,94970.00
2023-01-27T02:35:58.125Z,94972.00
2023-01-27T02:36:58.039Z,94970.00
2023-01-27T02:37:57.948Z,94968.00
2023-01-27T02:38:57.808Z,94966.00
2023-01-27T02:39:57.763Z,94966.00
2023-01-27T02:40:57.663Z,94966.00
2023-01-27T02:41:57.573Z,94966.00
2023-01-27T02:42:57.462Z,94968.00
2023-01-27T02:43:57.371Z,94968.00
2023-01-27T02:44:57.300Z,94964.00
2023-01-27T02:45:57.249Z,94966.00
2023-01-27T02:46:57.144Z,94966.00
2023-01-27T03:35:53.181Z,94968.00
2023-01-27T03:36:53.091Z,94970.00
2023-01-27T03:37:53.017Z,94968.00
2023-01-27T03:38:52.915Z,94968.00
2023-01-27T03:39:52.828Z,94964.00
2023-01-27T03:40:52.800Z,94964.00
2023-01-27T03:41:52.760Z,94964.00
2023-01-27T03:42:52.722Z,94960.00
2023-01-27T03:43:52.631Z,94962.00
2023-01-27T03:44:52.558Z,94964.00
2023-01-27T03:45:52.488Z,94962.00
2023-01-27T03:46:52.447Z,94962.00
2023-01-27T03:47:52.342Z,94958.00
2023-01-27T03:48:52.329Z,94960.00
2023-01-27T03:49:52.294Z,94962.00
2023-01-27T03:50:52.264Z,94956.00
2023-01-27T03:51:52.195Z,94954.00
2023-01-27T03:52:52.179Z,94956.00
2023-01-27T03:53:52.089Z,94956.00
2023-01-27T03:54:52.088Z,94956.00
2023-01-27T03:55:51.992Z,94956.00
2023-01-27T03:56:51.980Z,94956.00
2023-01-27T03:57:51.888Z,94954.00
2023-01-27T03:58:51.848Z,94954.00
2023-01-27T03:59:51.815Z,94956.00
2023-01-27T04:00:51.718Z,94954.00
2023-01-27T04:01:51.698Z,94956.00
2023-01-27T04:02:51.667Z,94954.00
2023-01-27T04:03:51.575Z,94952.00
2023-01-27T04:04:51.582Z,94952.00
2023-01-27T04:05:51.441Z,94950.00
2023-01-27T04:06:51.412Z,94950.00
2023-01-27T04:07:51.356Z,94948.00
2023-01-27T04:08:51.315Z,94952.00
2023-01-27T04:09:51.258Z,94952.00
2023-01-27T04:10:51.204Z,94946.00
2023-01-27T04:11:51.223Z,94948.00
2023-01-27T04:12:51.101Z,94950.00
2023-01-27T04:13:51.032Z,94946.00
2023-01-27T04:14:51.038Z,94946.00
2023-01-27T04:15:50.962Z,94946.00
2023-01-27T04:16:50.886Z,94948.00
2023-01-27T04:17:50.852Z,94946.00
2023-01-27T04:18:50.800Z,94948.00
2023-01-27T04:19:50.759Z,94946.00
2023-01-27T04:20:50.656Z,94946.00
2023-01-27T04:21:50.665Z,94946.00
2023-01-27T04:22:50.596Z,94948.00
2023-01-27T04:23:50.549Z,94948.00
2023-01-27T04:24:50.466Z,94948.00
2023-01-27T04:25:50.404Z,94944.00
2023-01-27T04:26:50.358Z,94946.00
2023-01-27T04:27:50.310Z,94940.00
2023-01-27T04:28:50.224Z,94944.00
2023-01-27T04:29:50.352Z,94940.00
2023-01-27T04:30:50.145Z,94942.00
2023-01-27T04:31:50.159Z,94944.00
2023-01-27T04:32:50.007Z,94944.00
2023-01-27T04:33:49.943Z,94940.00
2023-01-27T04:34:49.912Z,94942.00
2023-01-27T04:35:49.836Z,94940.00
2023-01-27T04:36:49.799Z,94940.00
2023-01-27T04:37:49.733Z,94942.00
2023-01-27T04:38:49.646Z,94942.00
2023-01-27T04:39:49.602Z,94942.00
2023-01-27T04:40:49.532Z,94944.00
2023-01-27T04:41:49.501Z,94944.00
2023-01-27T04:42:49.446Z,94944.00
2023-01-27T04:43:49.363Z,94946.00
2023-01-27T04:44:49.354Z,94948.00
2023-01-27T04:45:49.333Z,94948.00
2023-01-27T04:46:49.218Z,94952.00
2023-01-27T04:47:49.147Z,94950.00
2023-01-27T04:48:49.105Z,94952.00
2023-01-27T04:49:49.074Z,94950.00
2023-01-27T04:50:49.012Z,94948.00
2023-01-27T04:51:48.929Z,94948.00
2023-01-27T04:52:48.857Z,94944.00
2023-01-27T04:53:48.769Z,94944.00
2023-01-27T04:54:48.739Z,94942.00
2023-01-27T04:55:48.648Z,94942.00
2023-01-27T04:56:48.610Z,94936.00
2023-01-27T04:57:48.550Z,94936.00
2023-01-27T05:03:48.865Z,94932.00
2023-01-27T06:26:42.366Z,94997.00
2023-01-27T06:27:42.238Z,94999.00
2023-01-27T06:28:42.148Z,94999.00
2023-01-27T06:29:42.127Z,95001.00
2023-01-27T06:30:42.065Z,95001.00
2023-01-27T06:31:42.036Z,95001.00
2023-01-27T06:32:41.930Z,95003.00
2023-01-27T06:33:41.868Z,95005.00
2023-01-27T06:34:41.818Z,95007.00
2023-01-27T06:35:41.959Z,95007.00
2023-01-27T06:36:41.648Z,95009.00
2023-01-27T06:37:41.614Z,95011.00
2023-01-27T06:38:41.573Z,95013.00
2023-01-27T06:39:41.534Z,95015.00
2023-01-27T06:40:41.945Z,95015.00
2023-01-27T06:41:41.420Z,95017.00
2023-01-27T06:42:41.313Z,95011.00
2023-01-27T06:43:41.264Z,95011.00
2023-01-27T06:44:41.182Z,95017.00
2023-01-27T06:45:41.461Z,95017.00
2023-01-27T06:46:41.118Z,95013.00
2023-01-27T06:47:41.083Z,95021.00
2023-01-27T06:48:40.988Z,95021.00
2023-01-27T06:49:40.974Z,95021.00
2023-01-27T06:50:40.930Z,95013.00
2023-01-27T06:51:40.836Z,95015.00
2023-01-27T06:52:40.783Z,95015.00
2023-01-27T06:53:40.750Z,95017.00
2023-01-27T06:54:40.701Z,95015.00
2023-01-27T06:55:40.642Z,95017.00
2023-01-27T06:56:40.569Z,95019.00
2023-01-27T06:57:40.509Z,95017.00
2023-01-27T06:58:40.471Z,95017.00
2023-01-27T06:59:40.387Z,95019.00
2023-01-27T07:00:40.375Z,95021.00
2023-01-27T07:01:40.393Z,95021.00
2023-01-27T07:02:40.369Z,95025.00
2023-01-27T07:03:40.168Z,95023.00
2023-01-27T07:04:40.150Z,95021.00
2023-01-27T07:07:40.017Z,95023.00
2023-01-27T07:08:39.942Z,95023.00
2023-01-27T07:09:51.691Z,95025.00
2023-01-27T07:10:40.766Z,95025.00
2023-01-27T07:11:39.999Z,95028.00
2023-01-27T07:12:39.636Z,95025.00
2023-01-27T07:13:39.510Z,95030.00
2023-01-27T07:14:39.393Z,95030.00
2023-01-27T07:15:39.283Z,95027.00
2023-01-27T07:16:39.456Z,95027.00
2023-01-27T07:17:39.025Z,95034.00
2023-01-27T07:18:39.982Z,95030.00
2023-01-27T07:19:38.902Z,95028.00
2023-01-27T07:20:38.880Z,95030.00
2023-01-27T07:21:38.985Z,95032.00
2023-01-27T07:22:38.719Z,95034.00
2023-01-27T07:23:38.659Z,95034.00
2023-01-27T07:24:38.634Z,95038.00
2023-01-27T07:25:38.489Z,95040.00
2023-01-27T07:26:38.487Z,95040.00
2023-01-27T07:27:38.415Z,95042.00
2023-01-27T07:28:38.328Z,95048.00
2023-01-27T07:32:38.138Z,95054.00
2023-01-27T07:33:38.099Z,95056.00
2023-01-27T07:34:38.041Z,95056.00
2023-01-27T07:35:37.985Z,95056.00
2023-01-27T07:36:37.943Z,95056.00
2023-01-27T07:42:37.598Z,95054.00
2023-01-27T07:43:38.479Z,95052.00
2023-01-27T07:44:37.463Z,95054.00
2023-01-27T07:45:37.429Z,95058.00
2023-01-27T07:46:37.455Z,95058.00
2023-01-27T07:47:37.305Z,95060.00
2023-01-27T07:48:37.227Z,95060.00
2023-01-27T07:49:37.186Z,95058.00
2023-01-27T07:50:37.134Z,95062.00
2023-01-27T07:51:37.503Z,95064.00
2023-01-27T07:52:37.013Z,95066.00
2023-01-27T07:53:36.972Z,95066.00
2023-01-27T07:54:36.876Z,95066.00
2023-01-27T07:55:36.842Z,95064.00
2023-01-27T07:56:36.776Z,95068.00
2023-01-27T07:57:36.777Z,95064.00
2023-01-27T07:58:36.657Z,95064.00
2023-01-27T07:59:36.641Z,95060.00
2023-01-27T08:00:36.619Z,95058.00
2023-01-27T08:01:36.488Z,95054.00
2023-01-27T08:02:36.475Z,95056.00
2023-01-27T08:03:36.559Z,95052.00
2023-01-27T08:04:50.855Z,95052.00
2023-01-27T08:05:37.237Z,95050.00
2023-01-27T08:06:36.166Z,95048.00
2023-01-27T08:07:36.016Z,95050.00
2023-01-27T08:08:38.054Z,95052.00
2023-01-27T08:09:35.769Z,95052.00
2023-01-27T08:10:35.697Z,95052.00
2023-01-27T08:11:35.597Z,95050.00
2023-01-27T08:12:35.485Z,95048.00
2023-01-27T08:13:35.342Z,95044.00
2023-01-27T08:18:35.078Z,95044.00
2023-01-27T08:19:35.068Z,95046.00
2023-01-27T08:20:34.973Z,95044.00
2023-01-27T08:21:34.937Z,95044.00
2023-01-27T08:22:34.879Z,95046.00
2023-01-27T08:23:34.850Z,95046.00
2023-01-27T08:24:34.798Z,95048.00
2023-01-27T08:25:34.733Z,95048.00
2023-01-27T08:26:34.671Z,95054.00
2023-01-27T08:27:34.619Z,95054.00
2023-01-27T08:28:34.546Z,95054.00
2023-01-27T08:29:34.506Z,95054.00
2023-01-27T08:30:34.492Z,95054.00
2023-01-27T08:31:34.433Z,95054.00
2023-01-27T08:32:34.353Z,95058.00
2023-01-27T08:33:34.297Z,95054.00
2023-01-27T08:34:34.241Z,95056.00
2023-01-27T08:35:34.172Z,95058.00
2023-01-27T08:36:34.163Z,95056.00
2023-01-27T08:37:34.096Z,95060.00
2023-01-27T08:38:34.043Z,95056.00
2023-01-27T08:39:33.965Z,95060.00
2023-01-27T08:40:33.906Z,95064.00
2023-01-27T08:41:33.891Z,95064.00
2023-01-27T08:42:33.811Z,95062.00
2023-01-27T08:43:33.802Z,95064.00
2023-01-27T08:44:33.722Z,95062.00
2023-01-27T08:45:33.815Z,95064.00
2023-01-27T08:46:33.658Z,95062.00
2023-01-27T08:48:33.389Z,95062.00
2023-01-27T08:49:33.284Z,95062.00
2023-01-27T08:50:33.185Z,95066.00
2023-01-27T08:51:33.067Z,95066.00
2023-01-27T08:52:32.921Z,95068.00
2023-01-27T08:53:32.914Z,95068.00
2023-01-27T08:54:32.756Z,95072.00
2023-01-27T08:55:32.657Z,95070.00
2023-01-27T08:56:32.515Z,95075.00
2023-01-27T08:57:32.594Z,95074.00
2023-01-27T08:58:32.437Z,95079.00
2023-01-27T08:59:32.412Z,95079.00
2023-01-27T09:00:32.282Z,95081.00
2023-01-27T09:52:45.491Z,95072.00
2023-01-27T09:53:29.884Z,95072.00
2023-01-27T09:54:28.765Z,95070.00
2023-01-27T09:55:28.657Z,95070.00
2023-01-27T09:56:28.573Z,95068.00
2023-01-27T09:57:29.015Z,95068.00
2023-01-27T09:58:28.330Z,95066.00
2023-01-27T09:59:28.207Z,95064.00
2023-01-27T10:00:28.088Z,95064.00
2023-01-27T10:01:28.051Z,95066.00
2023-01-27T10:02:27.895Z,95068.00
2023-01-27T10:03:27.774Z,95066.00
2023-01-27T10:05:27.756Z,95068.00
2023-01-27T10:06:27.605Z,95070.00
2023-01-27T10:07:27.570Z,95070.00
2023-01-27T10:08:27.477Z,95068.00
2023-01-27T10:09:27.498Z,95066.00
2023-01-27T10:10:27.439Z,95064.00
2023-01-27T10:11:27.303Z,95062.00
2023-01-27T10:12:27.249Z,95062.00
2023-01-27T10:13:27.195Z,95060.00
2023-01-27T10:14:27.112Z,95060.00
2023-01-27T10:15:27.132Z,95060.00
2023-01-27T10:16:27.074Z,95062.00
2023-01-27T10:17:27.000Z,95062.00
2023-01-27T10:18:26.866Z,95062.00
2023-01-27T10:19:26.809Z,95060.00
2023-01-27T10:20:26.789Z,95066.00
2023-01-27T10:21:26.976Z,95064.00
2023-01-27T10:22:26.656Z,95060.00
2023-01-27T10:23:26.556Z,95058.00
2023-01-27T10:24:26.533Z,95060.00
2023-01-27T10:25:26.431Z,95060.00
2023-01-27T10:26:26.380Z,95058.00
2023-01-27T10:27:26.545Z,95054.00
2023-01-27T10:28:26.309Z,95052.00
2023-01-27T10:29:26.225Z,95048.00
2023-01-27T10:30:26.147Z,95044.00
2023-01-27T10:31:26.069Z,95044.00
2023-01-27T10:32:26.017Z,95042.00
2023-01-27T10:33:28.380Z,95038.00
2023-01-27T10:34:26.750Z,95042.00
2023-01-27T10:35:25.981Z,95040.00
2023-01-27T10:36:25.929Z,95042.00
2023-01-27T10:37:25.842Z,95044.00
2023-01-27T10:38:25.821Z,95044.00
2023-01-27T10:39:25.737Z,95042.00
2023-01-27T10:40:25.681Z,95044.00
2023-01-27T10:41:25.590Z,95044.00
2023-01-27T10:42:25.575Z,95046.00
2023-01-27T10:43:25.471Z,95044.00
2023-01-27T10:44:25.431Z,95046.00
2023-01-27T10:45:25.368Z,95044.00
2023-01-27T11:06:23.443Z,95060.00
2023-01-27T11:07:23.426Z,95056.00
2023-01-27T11:08:23.368Z,95056.00
2023-01-27T11:09:24.001Z,95054.00
2023-01-27T11:10:23.200Z,95050.00
2023-01-27T11:11:23.196Z,95044.00
2023-01-27T11:12:23.106Z,95044.00
2023-01-27T11:13:23.006Z,95048.00
2023-01-27T11:14:22.967Z,95042.00
2023-01-27T11:15:22.868Z,95044.00
2023-01-27T11:16:22.887Z,95042.00
2023-01-27T11:17:22.746Z,95038.00
2023-01-27T11:18:22.705Z,95036.00
2023-01-27T11:19:22.674Z,95034.00
2023-01-27T11:20:22.579Z,95036.00
2023-01-27T11:21:22.579Z,95027.00
2023-01-27T11:22:22.455Z,95032.00
2023-01-27T11:23:22.428Z,95032.00
2023-01-27T11:24:22.429Z,95030.00
2023-01-27T11:25:22.302Z,95028.00
2023-01-27T11:26:23.781Z,95025.00
2023-01-27T11:27:22.149Z,95025.00
2023-01-27T11:28:22.090Z,95023.00
2023-01-27T11:29:22.029Z,95023.00
2023-01-27T11:30:22.030Z,95025.00
2023-01-27T11:31:22.103Z,95023.00
2023-01-27T11:32:22.117Z,95019.00
2023-01-27T11:33:21.787Z,95017.00
2023-01-27T11:34:21.783Z,95019.00
2023-01-27T11:35:21.682Z,95013.00
2023-01-27T11:36:21.634Z,95011.00
2023-01-27T11:37:21.589Z,95009.00
2023-01-27T11:38:21.576Z,95009.00
2023-01-27T11:39:21.452Z,95007.00
2023-01-27T11:40:21.392Z,95007.00
2023-01-27T11:41:21.278Z,95005.00
2023-01-27T11:42:21.237Z,95005.00
2023-01-27T11:43:21.212Z,95003.00
2023-01-27T11:44:21.179Z,95001.00
2023-01-27T11:45:21.097Z,94999.00
2023-01-27T11:46:21.031Z,95001.00
2023-01-27T11:47:20.965Z,94999.00
2023-01-27T11:48:23.324Z,94999.00
2023-01-27T11:49:21.008Z,94997.00
2023-01-27T11:50:20.947Z,94999.00
2023-01-27T11:51:20.957Z,95001.00
2023-01-27T11:52:20.861Z,94999.00
2023-01-27T11:53:20.807Z,94995.00
2023-01-27T11:54:20.792Z,94991.00
2023-01-27T11:55:20.709Z,94993.00
2023-01-27T11:56:20.566Z,94993.00
2023-01-27T11:57:20.569Z,94993.00
2023-01-27T11:58:20.517Z,94993.00
2023-01-27T11:59:20.462Z,94991.00
2023-01-27T12:00:20.424Z,94989.00
2023-01-27T12:01:20.727Z,94989.00
2023-01-27T12:02:20.278Z,94987.00
2023-01-27T12:03:20.188Z,94989.00
2023-01-27T12:48:17.577Z,94962.00
2023-01-27T12:49:17.520Z,94962.00
2023-01-27T12:53:17.296Z,94958.00
2023-01-27T12:54:17.225Z,94960.00
2023-01-27T12:55:17.111Z,94960.00
2023-01-27T12:56:17.054Z,94956.00
2023-01-27T12:57:17.031Z,94960.00
2023-01-27T12:58:16.942Z,94958.00
2023-01-27T13:01:16.719Z,94964.00
2023-01-27T13:02:16.730Z,94962.00
2023-01-27T13:03:16.608Z,94964.00
2023-01-27T13:04:16.577Z,94966.00
2023-01-27T13:05:16.513Z,94966.00
2023-01-27T13:21:15.557Z,94962.00
2023-01-27T13:22:15.500Z,94962.00
2023-01-27T13:23:15.414Z,94960.00
2023-01-27T13:24:15.409Z,94960.00
2023-01-27T14:11:12.692Z,94983.00
2023-01-27T14:12:12.665Z,94977.00
2023-01-27T14:13:12.628Z,94977.00
2023-01-27T14:14:12.572Z,94981.00
2023-01-27T14:15:12.432Z,94979.00
2023-01-27T14:16:12.398Z,94981.00
2023-01-27T14:17:12.317Z,94981.00
2023-01-27T14:18:12.301Z,94983.00
2023-01-27T14:19:12.233Z,94987.00
2023-01-27T14:20:12.488Z,94987.00
2023-01-27T14:21:12.120Z,94987.00
2023-01-27T14:22:12.063Z,94983.00
2023-01-27T14:23:11.983Z,94983.00
2023-01-27T14:24:11.960Z,94981.00
2023-01-27T14:25:11.892Z,94985.00
2023-01-27T14:26:11.852Z,94983.00
2023-01-27T14:27:11.795Z,94983.00
2023-01-27T14:28:11.737Z,94983.00
2023-01-27T14:29:11.681Z,94983.00
2023-01-27T14:30:11.824Z,94985.00
2023-01-27T14:31:11.692Z,94989.00
2023-01-27T14:32:11.534Z,94989.00
2023-01-27T14:33:11.481Z,94991.00
2023-01-27T14:34:11.438Z,94989.00
2023-01-27T14:35:11.387Z,94991.00
2023-01-27T14:36:11.296Z,94991.00
2023-01-27T14:37:11.280Z,94995.00
2023-01-27T14:38:11.213Z,94991.00
2023-01-27T14:39:11.170Z,94993.00
2023-01-27T14:40:11.084Z,94995.00
2023-01-27T14:41:11.088Z,94995.00
2023-01-27T14:42:10.976Z,94999.00
2023-01-27T14:43:10.945Z,94999.00
2023-01-27T14:44:10.905Z,94999.00
2023-01-27T14:45:10.851Z,94999.00
2023-01-27T14:46:10.770Z,94997.00
2023-01-27T14:47:10.710Z,94995.00
2023-01-27T14:48:10.655Z,94999.00
2023-01-27T14:49:10.608Z,94997.00
2023-01-27T14:50:10.547Z,94999.00
2023-01-27T14:51:10.586Z,94999.00
2023-01-27T14:52:10.437Z,94999.00
2023-01-27T14:53:10.424Z,94997.00
2023-01-27T14:54:10.364Z,94999.00
2023-01-27T14:55:10.308Z,94997.00
2023-01-27T14:56:10.240Z,94997.00
2023-01-27T14:57:10.224Z,94999.00
2023-01-27T14:58:10.163Z,95001.00
2023-01-27T14:59:10.103Z,94999.00
2023-01-27T15:00:10.018Z,95003.00
2023-01-27T15:01:10.125Z,95001.00
2023-01-27T15:02:10.004Z,95001.00
2023-01-27T15:03:09.896Z,95005.00
2023-01-27T15:04:09.848Z,95001.00
2023-01-27T15:05:09.756Z,95005.00
2023-01-27T15:06:09.719Z,95005.00
2023-01-27T15:07:09.663Z,95007.00
2023-01-27T15:08:09.621Z,95005.00
2023-01-27T15:09:09.581Z,95005.00
2023-01-27T15:10:09.513Z,95009.00
2023-01-27T15:11:09.455Z,95013.00
2023-01-27T15:12:09.412Z,95013.00
2023-01-27T15:13:09.334Z,95013.00
2023-01-27T15:14:09.299Z,95015.00
2023-01-27T15:15:09.265Z,95015.00
2023-01-27T15:16:09.161Z,95015.00
2023-01-27T15:17:09.092Z,95017.00
2023-01-27T15:18:09.067Z,95015.00
2023-01-27T15:19:09.002Z,95019.00
2023-01-27T15:20:08.932Z,95021.00
2023-01-27T15:21:08.907Z,95021.00
2023-01-27T15:22:08.847Z,95021.00
2023-01-27T15:23:08.788Z,95023.00
2023-01-27T15:24:08.751Z,95025.00
2023-01-27T15:25:08.691Z,95027.00
2023-01-27T15:26:08.644Z,95025.00
2023-01-27T15:27:08.585Z,95025.00
2023-01-27T15:28:08.511Z,95025.00
2023-01-27T15:29:08.496Z,95025.00
2023-01-27T15:30:08.393Z,95028.00
2023-01-27T15:31:08.393Z,95025.00
2023-01-27T15:32:08.376Z,95025.00
2023-01-27T15:33:08.269Z,95023.00
2023-01-27T15:34:08.233Z,95027.00
2023-01-27T15:35:08.161Z,95027.00
2023-01-27T15:36:08.141Z,95027.00
2023-01-27T15:37:08.065Z,95027.00
2023-01-27T15:38:08.005Z,95028.00
2023-01-27T15:39:07.977Z,95032.00
2023-01-27T15:40:07.951Z,95032.00
2023-01-27T15:41:07.874Z,95032.00
2023-01-27T15:42:07.794Z,95028.00
2023-01-27T15:43:07.701Z,95032.00
2023-01-27T15:44:07.711Z,95032.00
2023-01-27T15:45:07.654Z,95036.00
2023-01-27T15:46:07.605Z,95038.00
2023-01-27T15:47:07.514Z,95036.00
2023-01-27T15:48:07.493Z,95040.00
2023-01-27T15:49:07.436Z,95038.00
2023-01-27T15:50:07.338Z,95038.00
2023-01-27T15:51:07.311Z,95038.00
2023-01-27T15:52:07.203Z,95042.00
2023-01-27T15:53:08.378Z,95042.00
2023-01-27T15:54:07.154Z,95044.00
2023-01-27T15:55:07.049Z,95042.00
2023-01-27T15:56:06.962Z,95046.00
2023-01-27T15:57:06.902Z,95046.00
2023-01-27T15:58:06.845Z,95048.00
2023-01-27T15:59:06.807Z,95050.00
2023-01-27T16:00:06.776Z,95048.00
2023-01-27T16:01:06.720Z,95046.00
2023-01-27T16:02:06.648Z,95046.00
2023-01-27T16:04:06.534Z,95044.00
2023-01-27T16:05:06.468Z,95046.00
2023-01-27T16:06:06.423Z,95048.00
2023-01-27T16:07:06.390Z,95048.00
2023-01-27T16:08:06.307Z,95042.00
2023-01-27T16:11:06.106Z,95048.00
2023-01-27T16:13:06.019Z,95048.00
2023-01-27T16:14:05.953Z,95050.00
2023-01-27T16:15:05.939Z,95048.00
2023-01-27T16:16:05.891Z,95048.00
2023-01-27T16:17:05.842Z,95052.00
2023-01-27T16:18:05.796Z,95054.00
2023-01-27T16:19:05.723Z,95056.00
2023-01-27T16:20:05.691Z,95054.00
2023-01-27T16:21:05.662Z,95056.00
2023-01-27T16:22:05.562Z,95054.00
2023-01-27T16:23:05.514Z,95056.00
2023-01-27T16:24:05.506Z,95056.00
2023-01-27T16:25:05.417Z,95056.00
2023-01-27T16:26:05.397Z,95062.00
2023-01-27T16:27:05.342Z,95058.00
2023-01-27T16:29:05.679Z,95062.00
2023-01-27T16:48:03.760Z,95074.00
2023-01-27T17:00:02.769Z,95081.00
2023-01-27T17:01:02.779Z,95083.00
2023-01-27T17:02:02.608Z,95081.00
2023-01-27T17:03:02.564Z,95083.00
2023-01-27T17:04:14.038Z,95081.00
2023-01-27T17:06:02.181Z,95081.00
2023-01-27T17:07:02.094Z,95085.00
2023-01-27T17:08:01.955Z,95083.00
2023-01-27T17:09:01.865Z,95087.00
2023-01-27T17:10:01.749Z,95087.00
2023-01-27T17:11:01.655Z,95091.00
2023-01-27T17:12:01.584Z,95093.00
2023-01-27T17:13:01.423Z,95095.00
2023-01-27T17:14:01.323Z,95099.00
2023-01-27T17:15:01.220Z,95101.00
2023-01-27T17:16:01.114Z,95103.00
2023-01-27T17:17:01.182Z,95101.00
2023-01-27T17:18:00.914Z,95101.00
2023-01-27T17:19:00.859Z,95101.00
2023-01-27T17:20:00.674Z,95101.00
2023-01-27T17:21:00.600Z,95099.00
2023-01-27T17:22:00.467Z,95099.00
2023-01-27T17:23:00.389Z,95099.00
2023-01-27T17:24:00.278Z,95101.00
2023-01-27T17:25:00.154Z,95105.00
2023-01-27T17:29:59.613Z,95105.00
2023-01-27T17:30:59.555Z,95105.00
2023-01-27T17:31:59.531Z,95105.00
2023-01-27T17:32:59.324Z,95105.00
2023-01-27T17:33:59.252Z,95107.00
2023-01-27T17:34:59.134Z,95107.00
2023-01-27T17:35:59.046Z,95109.00
2023-01-27T17:36:58.942Z,95111.00
2023-01-27T17:37:58.849Z,95111.00
2023-01-27T17:38:58.776Z,95115.00
2023-01-27T17:39:58.670Z,95113.00
2023-01-27T17:40:58.529Z,95117.00
2023-01-27T17:41:58.457Z,95115.00
2023-01-27T17:42:58.378Z,95117.00
2023-01-27T17:43:58.270Z,95119.00
2023-01-27T17:44:58.208Z,95119.00
2023-01-27T17:45:58.141Z,95119.00
2023-01-27T17:46:57.998Z,95122.00
2023-01-27T17:47:57.908Z,95122.00
2023-01-27T17:48:57.802Z,95124.00
2023-01-27T17:49:57.720Z,95126.00
2023-01-27T17:50:57.635Z,95130.00
2023-01-27T17:51:57.524Z,95130.00
2023-01-27T17:52:57.480Z,95130.00
2023-01-27T17:53:57.364Z,95130.00